createdAt,value
2019-03-25T00:01:40.563Z,9.63
2019-03-25T00:04:11.510Z,11.83
2019-03-25T00:06:42.563Z,15.78
2019-03-25T00:09:13.521Z,10.60
2019-03-25T00:11:44.494Z,13.48
2019-03-25T00:14:15.575Z,14.13
2019-03-25T00:16:46.588Z,12.95
2019-03-25T00:19:18.125Z,11.10
2019-03-25T00:21:49.016Z,13.75
2019-03-25T00:24:19.986Z,11.50
2019-03-25T00:26:50.924Z,12.75
2019-03-25T00:29:22.281Z,9.23
2019-03-25T00:31:53.975Z,10.95
2019-03-25T00:34:24.919Z,9.10
2019-03-25T00:36:56.201Z,11.95
2019-03-25T00:39:27.219Z,11.83
2019-03-25T00:41:58.106Z,12.20
2019-03-25T00:44:29.455Z,12.80
2019-03-25T00:47:01.175Z,11.80
2019-03-25T00:49:33.478Z,10.38
2019-03-25T00:52:04.475Z,10.15
2019-03-25T00:54:35.428Z,17.17
2019-03-25T00:57:06.325Z,13.72
2019-03-25T00:59:37.327Z,16.48
2019-03-25T01:02:08.812Z,19.50
2019-03-25T01:04:40.036Z,16.87
2019-03-25T01:07:12.620Z,19.15
2019-03-25T01:09:43.592Z,14.83
2019-03-25T01:12:14.835Z,12.23
2019-03-25T01:14:45.847Z,14.55
2019-03-25T01:17:16.947Z,15.15
2019-03-25T01:19:48.255Z,13.45
2019-03-25T01:22:19.256Z,14.83
2019-03-25T01:25:00.927Z,15.85
2019-03-25T01:27:22.695Z,14.15
2019-03-25T01:29:53.783Z,19.02
2019-03-25T01:32:24.714Z,15.23
2019-03-25T01:34:55.678Z,16.55
2019-03-25T01:37:26.935Z,18.32
2019-03-25T01:39:57.784Z,15.90
2019-03-25T01:42:28.659Z,18.32
2019-03-25T01:44:59.590Z,18.52
2019-03-25T01:47:30.586Z,18.98
2019-03-25T01:50:01.518Z,15.80
2019-03-25T01:52:32.799Z,17.52
2019-03-25T01:55:13.031Z,17.98
2019-03-25T01:57:36.364Z,20.85
2019-03-25T02:00:08.504Z,17.25
2019-03-25T02:02:39.491Z,20.85
2019-03-25T02:05:12.072Z,24.00
2019-03-25T02:07:43.004Z,16.67
2019-03-25T02:10:14.342Z,15.28
2019-03-25T02:12:45.250Z,13.70
2019-03-25T02:15:16.357Z,19.57
2019-03-25T02:17:47.269Z,19.05
2019-03-25T02:20:26.340Z,22.73
2019-03-25T02:22:50.870Z,21.93
2019-03-25T02:25:25.649Z,20.95
2019-03-25T02:27:54.550Z,16.55
2019-03-25T02:30:25.669Z,20.27
2019-03-25T02:32:56.655Z,19.17
2019-03-25T02:35:27.637Z,21.52
2019-03-25T02:37:58.628Z,20.90
2019-03-25T02:40:30.554Z,22.95
2019-03-25T02:43:01.448Z,15.53
2019-03-25T02:45:32.394Z,12.78
2019-03-25T02:48:03.395Z,18.90
2019-03-25T02:50:34.192Z,20.12
2019-03-25T02:53:06.923Z,17.07
2019-03-25T02:55:42.097Z,17.52
2019-03-25T02:58:10.449Z,20.10
2019-03-25T03:00:41.663Z,20.62
2019-03-25T03:03:12.919Z,10.68
2019-03-25T03:05:44.185Z,19.07
2019-03-25T03:08:15.711Z,14.90
2019-03-25T03:10:47.052Z,21.35
2019-03-25T03:13:18.032Z,16.70
2019-03-25T03:15:48.985Z,17.67
2019-03-25T03:18:19.864Z,18.67
2019-03-25T03:20:50.696Z,20.25
2019-03-25T03:23:21.573Z,18.45
2019-03-25T03:25:57.653Z,21.50
2019-03-25T03:28:25.241Z,15.20
2019-03-25T03:30:56.337Z,15.88
2019-03-25T03:33:27.256Z,19.00
2019-03-25T03:35:58.204Z,15.23
2019-03-25T03:38:29.141Z,14.23
2019-03-25T03:41:01.109Z,18.12
2019-03-25T03:43:32.167Z,16.77
2019-03-25T03:46:03.049Z,14.58
2019-03-25T03:48:33.903Z,17.02
2019-03-25T03:51:05.295Z,16.57
2019-03-25T03:53:36.482Z,17.30
2019-03-25T03:56:13.390Z,20.35
2019-03-25T03:58:41.344Z,21.95
2019-03-25T04:01:12.649Z,18.87
2019-03-25T04:03:43.534Z,21.40
2019-03-25T04:06:14.352Z,14.87
2019-03-25T04:08:45.316Z,18.15
2019-03-25T04:11:16.299Z,17.87
2019-03-25T04:13:47.257Z,18.77
2019-03-25T04:16:18.226Z,18.85
2019-03-25T04:18:50.085Z,18.17
2019-03-25T04:21:21.031Z,13.43
2019-03-25T04:23:52.063Z,15.58
2019-03-25T04:26:29.170Z,17.15
2019-03-25T04:28:55.899Z,18.15
2019-03-25T04:31:27.418Z,10.75
2019-03-25T04:33:58.295Z,21.42
2019-03-25T04:36:29.223Z,16.77
2019-03-25T04:39:00.921Z,19.70
2019-03-25T04:41:31.957Z,13.05
2019-03-25T04:44:02.827Z,19.45
2019-03-25T04:46:33.651Z,14.47
2019-03-25T04:49:04.539Z,15.30
2019-03-25T04:51:35.471Z,11.12
2019-03-25T04:54:06.467Z,16.12
2019-03-25T04:56:40.051Z,14.40
2019-03-25T04:59:10.491Z,13.38
2019-03-25T05:01:41.371Z,17.98
2019-03-25T05:04:12.933Z,16.12
2019-03-25T05:06:44.751Z,15.30
2019-03-25T05:09:15.668Z,23.47
2019-03-25T05:11:46.512Z,16.57
2019-03-25T05:14:17.387Z,15.65
2019-03-25T05:16:48.219Z,15.83
2019-03-25T05:19:19.213Z,13.98
2019-03-25T05:21:50.158Z,13.98
2019-03-25T05:24:21.187Z,12.25
2019-03-25T05:26:52.059Z,15.83
2019-03-25T05:29:22.935Z,15.20
2019-03-25T05:31:54.088Z,16.37
2019-03-25T05:34:25.035Z,16.50
2019-03-25T05:36:56.211Z,18.20
2019-03-25T05:39:27.067Z,18.90
2019-03-25T05:41:58.405Z,14.63
2019-03-25T05:44:29.307Z,15.48
2019-03-25T05:47:00.340Z,15.98
2019-03-25T05:49:31.311Z,19.52
2019-03-25T05:52:02.320Z,15.28
2019-03-25T05:54:33.206Z,13.62
2019-03-25T05:57:04.050Z,12.53
2019-03-25T05:59:34.929Z,15.32
2019-03-25T06:02:05.939Z,19.02
2019-03-25T06:04:38.897Z,19.80
2019-03-25T06:07:10.554Z,20.20
2019-03-25T06:09:42.359Z,20.15
2019-03-25T06:12:14.073Z,21.65
2019-03-25T06:14:45.511Z,19.37
2019-03-25T06:17:16.527Z,18.30
2019-03-25T06:19:47.483Z,17.82
2019-03-25T06:22:18.336Z,16.02
2019-03-25T06:24:49.564Z,18.05
2019-03-25T06:27:20.436Z,14.20
2019-03-25T06:29:51.315Z,24.82
2019-03-25T06:32:22.265Z,22.30
2019-03-25T06:34:53.235Z,21.20
2019-03-25T06:37:25.419Z,19.12
2019-03-25T06:39:56.292Z,17.65
2019-03-25T06:42:27.271Z,9.45
2019-03-25T06:44:58.170Z,18.05
2019-03-25T06:47:29.592Z,20.32
2019-03-25T06:50:00.498Z,17.55
2019-03-25T06:52:31.346Z,14.28
2019-03-25T06:55:03.931Z,16.12
2019-03-25T06:57:35.078Z,20.08
2019-03-25T07:00:06.860Z,14.93
2019-03-25T07:02:38.244Z,13.62
2019-03-25T07:05:09.779Z,15.15
2019-03-25T07:07:41.263Z,18.85
2019-03-25T07:10:13.124Z,15.40
2019-03-25T07:12:44.006Z,15.28
2019-03-25T07:15:16.988Z,14.93
2019-03-25T07:17:47.987Z,18.95
2019-03-25T07:20:19.247Z,16.55
2019-03-25T07:22:50.135Z,20.77
2019-03-25T07:25:21.158Z,17.87
2019-03-25T07:27:52.075Z,19.02
2019-03-25T07:30:23.106Z,11.20
2019-03-25T07:32:53.924Z,16.52
2019-03-25T07:35:24.988Z,15.40
2019-03-25T07:37:55.891Z,19.62
2019-03-25T07:40:26.707Z,14.23
2019-03-25T07:42:57.551Z,14.23
2019-03-25T07:45:28.568Z,12.43
2019-03-25T07:47:59.487Z,17.92
2019-03-25T07:50:30.334Z,13.90
2019-03-25T07:53:01.182Z,11.33
2019-03-25T07:55:32.070Z,12.33
2019-03-25T07:58:02.897Z,12.60
2019-03-25T08:00:33.821Z,14.73
2019-03-25T08:03:04.929Z,15.10
2019-03-25T08:05:35.779Z,9.88
2019-03-25T08:08:08.067Z,15.83
2019-03-25T08:10:39.037Z,10.03
2019-03-25T08:13:10.007Z,12.18
2019-03-25T08:15:41.049Z,9.60
2019-03-25T08:18:12.031Z,9.60
2019-03-25T08:20:42.958Z,12.68
2019-03-25T08:23:13.920Z,11.05
2019-03-25T08:25:45.993Z,11.30
2019-03-25T08:28:16.851Z,9.98
2019-03-25T08:30:49.748Z,15.23
2019-03-25T08:33:20.758Z,11.48
2019-03-25T08:35:51.789Z,9.70
2019-03-25T08:38:22.787Z,15.43
2019-03-25T08:40:53.788Z,12.78
2019-03-25T08:43:24.611Z,13.03
2019-03-25T08:45:55.555Z,13.60
2019-03-25T08:48:26.923Z,18.00
2019-03-25T08:50:57.923Z,11.85
2019-03-25T08:53:28.991Z,13.48
2019-03-25T08:55:59.922Z,13.60
2019-03-25T08:58:30.887Z,13.78
2019-03-25T09:01:01.856Z,11.33
2019-03-25T09:03:32.859Z,12.30
2019-03-25T09:06:04.003Z,19.73
2019-03-25T09:08:35.467Z,16.48
2019-03-25T09:11:07.224Z,18.98
2019-03-25T09:13:38.353Z,15.75
2019-03-25T09:16:09.224Z,17.37
2019-03-25T09:18:40.167Z,17.35
2019-03-25T09:21:11.173Z,17.87
2019-03-25T09:23:42.871Z,17.20
2019-03-25T09:26:13.895Z,11.78
2019-03-25T09:28:44.828Z,14.47
2019-03-25T09:31:16.928Z,24.15
2019-03-25T09:33:48.461Z,16.90
2019-03-25T09:36:23.751Z,15.88
2019-03-25T09:38:54.687Z,11.93
2019-03-25T09:41:25.634Z,16.97
2019-03-25T09:43:56.494Z,15.03
2019-03-25T09:46:27.458Z,12.18
2019-03-25T09:48:58.479Z,12.75
2019-03-25T09:51:29.564Z,10.85
2019-03-25T09:54:00.489Z,14.10
2019-03-25T09:56:31.504Z,10.05
2019-03-25T09:59:02.844Z,6.62
2019-03-25T10:01:35.038Z,11.38
2019-03-25T10:04:06.922Z,11.08
2019-03-25T10:06:38.023Z,8.60
2019-03-25T10:09:11.183Z,9.35
2019-03-25T10:11:42.162Z,12.45
2019-03-25T10:14:13.225Z,15.30
2019-03-25T10:16:44.267Z,17.17
2019-03-25T10:19:15.183Z,11.97
2019-03-25T10:21:46.191Z,13.18
2019-03-25T10:24:17.852Z,12.35
2019-03-25T10:26:49.045Z,16.82
2019-03-25T10:29:19.947Z,10.30
2019-03-25T10:31:50.903Z,14.60
2019-03-25T10:34:22.005Z,10.38
2019-03-25T10:36:52.957Z,11.73
2019-03-25T10:39:24.183Z,11.35
2019-03-25T10:41:55.774Z,12.05
2019-03-25T10:44:26.800Z,12.15
2019-03-25T10:47:08.995Z,13.48
2019-03-25T10:49:40.055Z,8.83
2019-03-25T10:52:11.100Z,17.57
2019-03-25T10:54:43.026Z,12.98
2019-03-25T10:57:14.600Z,16.00
2019-03-25T10:59:47.257Z,13.88
2019-03-25T11:02:18.472Z,13.90
2019-03-25T11:04:49.423Z,16.23
2019-03-25T11:07:29.333Z,13.13
2019-03-25T11:10:02.260Z,14.90
2019-03-25T11:12:33.142Z,11.65
2019-03-25T11:15:04.653Z,16.02
2019-03-25T11:17:35.651Z,13.88
2019-03-25T11:20:07.770Z,14.53
2019-03-25T11:22:38.839Z,12.85
2019-03-25T11:25:11.243Z,9.08
2019-03-25T11:27:42.207Z,8.70
2019-03-25T11:30:13.855Z,10.10
2019-03-25T11:32:44.844Z,9.40
2019-03-25T11:35:16.506Z,8.95
2019-03-25T11:37:48.252Z,8.20
2019-03-25T11:40:19.707Z,7.33
2019-03-25T11:42:50.663Z,12.45
2019-03-25T11:45:22.015Z,12.20
2019-03-25T11:47:52.978Z,8.80
2019-03-25T11:50:23.971Z,11.43
2019-03-25T11:52:56.545Z,10.63
2019-03-25T11:55:27.491Z,12.80
2019-03-25T11:57:58.579Z,13.85
2019-03-25T12:00:31.230Z,11.97
2019-03-25T12:03:02.144Z,7.37
2019-03-25T12:05:32.987Z,14.63
2019-03-25T12:08:04.022Z,10.40
2019-03-25T12:10:34.989Z,14.00
2019-03-25T12:13:05.935Z,9.40
2019-03-25T12:15:36.924Z,10.95
2019-03-25T12:18:07.903Z,14.70
2019-03-25T12:20:38.704Z,11.25
2019-03-25T12:23:10.403Z,10.13
2019-03-25T12:25:41.997Z,17.10
2019-03-25T12:28:13.236Z,15.03
2019-03-25T12:30:44.464Z,14.28
2019-03-25T12:33:15.631Z,13.93
2019-03-25T12:35:46.528Z,14.28
2019-03-25T12:38:17.402Z,10.82
2019-03-25T12:40:49.214Z,12.98
2019-03-25T12:43:20.048Z,13.28
2019-03-25T12:45:51.014Z,13.93
2019-03-25T12:48:21.934Z,12.90
2019-03-25T12:50:52.786Z,16.32
2019-03-25T12:53:23.719Z,14.05
2019-03-25T12:55:55.675Z,14.25
2019-03-25T12:58:26.548Z,18.52
2019-03-25T13:00:57.364Z,18.25
2019-03-25T13:03:28.309Z,18.05
2019-03-25T13:05:59.213Z,21.00
2019-03-25T13:08:33.418Z,13.32
2019-03-25T13:11:03.128Z,18.62
2019-03-25T13:13:34.101Z,17.15
2019-03-25T13:16:05.020Z,17.80
2019-03-25T13:18:35.882Z,15.50
2019-03-25T13:21:06.749Z,16.57
2019-03-25T13:23:37.649Z,20.02
2019-03-25T13:26:09.567Z,21.40
2019-03-25T13:28:40.472Z,18.70
2019-03-25T13:34:01.944Z,22.20
2019-03-25T13:36:32.771Z,23.83
2019-03-25T13:39:04.578Z,22.02
2019-03-25T13:41:35.448Z,18.50
2019-03-25T13:44:07.052Z,19.67
2019-03-25T13:46:39.368Z,23.92
2019-03-25T13:49:10.287Z,21.30
2019-03-25T13:51:41.739Z,16.32
2019-03-25T13:54:12.696Z,24.67
2019-03-25T13:56:43.579Z,15.95
2019-03-25T13:59:14.500Z,17.62
2019-03-25T14:01:45.436Z,17.77
2019-03-25T14:04:17.540Z,21.77
2019-03-25T14:06:48.507Z,18.40
2019-03-25T14:09:19.484Z,18.57
2019-03-25T14:11:50.327Z,16.82
2019-03-25T14:14:21.247Z,15.50
2019-03-25T14:16:52.611Z,21.75
2019-03-25T14:19:23.717Z,15.43
2019-03-25T14:21:54.793Z,15.48
2019-03-25T14:24:25.618Z,15.40
2019-03-25T14:26:56.463Z,15.50
2019-03-25T14:29:27.343Z,16.50
2019-03-25T14:31:59.928Z,17.80
2019-03-25T14:34:31.148Z,16.93
2019-03-25T14:37:02.141Z,11.93
2019-03-25T14:39:33.002Z,13.75
2019-03-25T14:42:03.992Z,15.88
2019-03-25T14:44:34.908Z,16.52
2019-03-25T14:47:05.873Z,14.25
2019-03-25T14:49:37.041Z,15.18
2019-03-25T14:52:07.996Z,15.72
2019-03-25T14:54:40.249Z,20.17
2019-03-25T14:57:11.952Z,16.70
2019-03-25T14:59:43.091Z,17.73
2019-03-25T15:02:14.090Z,14.20
2019-03-25T15:04:45.278Z,13.93
2019-03-25T15:07:16.592Z,17.85
2019-03-25T15:09:47.766Z,15.72
2019-03-25T15:12:18.844Z,17.90
2019-03-25T15:14:49.775Z,12.13
2019-03-25T15:17:21.433Z,18.10
2019-03-25T15:19:52.521Z,19.65
2019-03-25T15:22:23.482Z,19.82
2019-03-25T15:24:54.414Z,15.13
2019-03-25T15:27:25.684Z,14.80
2019-03-25T15:29:56.669Z,15.72
2019-03-25T15:32:27.583Z,13.55
2019-03-25T15:34:59.898Z,15.08
2019-03-25T15:37:30.839Z,15.05
2019-03-25T15:40:01.774Z,14.45
2019-03-25T15:42:32.733Z,11.03
2019-03-25T15:45:04.990Z,9.30
2019-03-25T15:47:36.068Z,11.12
2019-03-25T15:50:10.884Z,10.88
2019-03-25T15:52:43.568Z,13.58
2019-03-25T15:55:16.778Z,11.33
2019-03-25T15:57:49.297Z,11.68
2019-03-25T16:00:32.163Z,16.07
2019-03-25T16:03:05.508Z,13.13
2019-03-25T16:05:42.560Z,12.88
2019-03-25T16:08:16.349Z,18.52
2019-03-25T16:10:51.786Z,14.70
2019-03-25T16:13:23.495Z,15.08
2019-03-25T16:15:56.316Z,19.45
2019-03-25T16:18:42.479Z,17.52
2019-03-25T16:21:19.692Z,16.87
2019-03-25T16:23:52.748Z,15.90
2019-03-25T16:26:26.715Z,17.55
2019-03-25T16:28:58.518Z,16.30
2019-03-25T16:31:35.264Z,17.25
2019-03-25T16:34:09.556Z,17.32
2019-03-25T16:36:44.974Z,22.45
2019-03-25T16:39:18.323Z,21.97
2019-03-25T16:41:50.390Z,23.10
2019-03-25T16:44:22.789Z,24.52
2019-03-25T16:47:05.433Z,22.40
2019-03-25T16:49:36.343Z,16.40
2019-03-25T16:52:07.340Z,17.42
2019-03-25T16:54:38.236Z,14.50
2019-03-25T16:57:09.202Z,17.60
2019-03-25T16:59:41.008Z,17.73
2019-03-25T17:02:13.065Z,19.15
2019-03-25T17:04:43.915Z,21.25
2019-03-25T17:07:14.784Z,14.70
2019-03-25T17:09:46.036Z,19.80
2019-03-25T17:12:17.021Z,23.47
2019-03-25T17:14:47.927Z,19.65
2019-03-25T17:17:18.812Z,19.25
2019-03-25T17:19:49.651Z,16.80
2019-03-25T17:22:20.498Z,20.02
2019-03-25T17:24:51.471Z,19.85
2019-03-25T17:27:23.399Z,21.25
2019-03-25T17:29:54.727Z,14.50
2019-03-25T17:32:25.755Z,19.60
2019-03-25T17:34:56.574Z,21.23
2019-03-25T17:37:27.694Z,18.50
2019-03-25T17:39:58.637Z,22.80
2019-03-25T17:42:29.655Z,18.05
2019-03-25T17:45:01.330Z,15.15
2019-03-25T17:47:32.368Z,17.55
2019-03-25T17:50:03.467Z,16.50
2019-03-25T17:52:34.368Z,18.07
2019-03-25T17:55:05.810Z,17.23
2019-03-25T17:57:36.809Z,22.25
2019-03-25T18:00:09.724Z,17.17
2019-03-25T18:02:40.969Z,16.93
2019-03-25T18:05:12.136Z,19.40
2019-03-25T18:07:43.082Z,15.50
2019-03-25T18:10:14.184Z,19.23
2019-03-25T18:12:45.183Z,21.05
2019-03-25T18:15:16.176Z,17.48
2019-03-25T18:17:47.091Z,23.38
2019-03-25T18:20:19.099Z,19.30
2019-03-25T18:22:50.189Z,17.55
2019-03-25T18:25:21.148Z,18.35
2019-03-25T18:27:52.054Z,20.40
2019-03-25T18:30:31.142Z,15.18
2019-03-25T18:33:02.108Z,17.42
2019-03-25T18:35:34.020Z,18.02
2019-03-25T18:38:06.677Z,17.70
2019-03-25T18:40:37.654Z,17.25
2019-03-25T18:43:10.268Z,18.23
2019-03-25T18:45:41.261Z,20.08
2019-03-25T18:48:12.608Z,15.35
2019-03-25T18:50:44.631Z,20.50
2019-03-25T18:53:15.520Z,20.10
2019-03-25T18:55:47.106Z,17.45
2019-03-25T18:58:19.581Z,22.05
2019-03-25T19:00:50.443Z,27.50
2019-03-25T19:03:22.688Z,17.50
2019-03-25T19:05:53.606Z,18.90
2019-03-25T19:08:24.771Z,26.65
2019-03-25T19:10:55.735Z,26.65
2019-03-25T19:13:26.560Z,25.35
2019-03-25T19:15:57.416Z,23.92
2019-03-25T19:18:28.383Z,26.75
2019-03-25T19:20:59.306Z,23.10
2019-03-25T19:23:30.923Z,36.70
2019-03-25T19:26:01.774Z,25.70
2019-03-25T19:28:32.933Z,17.70
2019-03-25T19:31:04.022Z,25.57
2019-03-25T19:33:35.186Z,16.77
2019-03-25T19:36:06.194Z,24.05
2019-03-25T19:38:38.073Z,18.17
2019-03-25T19:41:08.995Z,26.95
2019-03-25T19:43:40.940Z,28.47
2019-03-25T19:46:12.189Z,26.62
2019-03-25T19:48:43.169Z,22.25
2019-03-25T19:51:14.101Z,26.77
2019-03-25T19:53:45.129Z,18.17
2019-03-25T19:56:16.079Z,26.40
2019-03-25T19:58:48.101Z,20.50
2019-03-25T20:01:19.043Z,20.65
2019-03-25T20:03:50.637Z,17.80
2019-03-25T20:06:26.437Z,21.48
2019-03-25T20:08:54.611Z,22.55
2019-03-25T20:11:25.426Z,23.67
2019-03-25T20:13:56.382Z,13.43
2019-03-25T20:16:27.385Z,22.13
2019-03-25T20:18:58.405Z,21.35
2019-03-25T20:21:29.428Z,25.30
2019-03-25T20:24:00.337Z,17.27
2019-03-25T20:26:31.287Z,16.23
2019-03-25T20:29:02.315Z,17.15
2019-03-25T20:31:33.243Z,16.95
2019-03-25T20:34:10.817Z,21.27
2019-03-25T20:36:37.164Z,20.43
2019-03-25T20:41:36.134Z,21.90
2019-03-25T20:44:07.188Z,19.80
2019-03-25T20:46:39.828Z,22.62
2019-03-25T20:49:10.819Z,23.52
2019-03-25T20:51:41.692Z,21.70
2019-03-25T20:54:13.020Z,23.22
2019-03-25T20:56:45.111Z,22.52
2019-03-25T20:59:16.075Z,19.32
2019-03-25T21:01:47.050Z,17.42
2019-03-25T21:04:18.804Z,22.65
2019-03-25T21:06:50.128Z,19.90
2019-03-25T21:09:21.231Z,24.90
2019-03-25T21:11:52.226Z,20.25
2019-03-25T21:14:23.282Z,24.72
2019-03-25T21:16:54.269Z,16.10
2019-03-25T21:19:26.705Z,20.75
2019-03-25T21:21:57.671Z,20.85
2019-03-25T21:24:28.943Z,16.30
2019-03-25T21:26:59.892Z,14.43
2019-03-25T21:29:31.897Z,13.53
2019-03-25T21:32:05.054Z,14.93
2019-03-25T21:34:35.910Z,14.75
2019-03-25T21:37:07.012Z,17.40
2019-03-25T21:39:37.944Z,11.53
2019-03-25T21:42:09.671Z,10.82
2019-03-25T21:44:40.681Z,13.25
2019-03-25T21:47:12.525Z,17.12
2019-03-25T21:49:43.450Z,16.00
2019-03-25T21:52:17.242Z,12.40
2019-03-25T21:54:48.349Z,13.88
2019-03-25T21:57:22.297Z,12.50
2019-03-25T21:59:53.850Z,11.50
2019-03-25T22:02:24.839Z,14.93
2019-03-25T22:04:57.288Z,9.03
2019-03-25T22:07:28.381Z,9.53
2019-03-25T22:09:59.339Z,11.95
2019-03-25T22:12:31.225Z,16.87
2019-03-25T22:15:03.783Z,15.25
2019-03-25T22:17:35.003Z,12.43
2019-03-25T22:20:07.575Z,15.65
2019-03-25T22:22:38.550Z,15.13
2019-03-25T22:25:11.246Z,15.45
2019-03-25T22:27:43.939Z,16.23
2019-03-25T22:30:16.439Z,16.45
2019-03-25T22:32:48.188Z,13.53
2019-03-25T22:35:19.786Z,10.43
2019-03-25T22:37:50.699Z,13.20
2019-03-25T22:40:25.055Z,13.13
2019-03-25T22:42:56.723Z,16.12
2019-03-25T22:45:31.654Z,12.58
2019-03-25T22:48:02.620Z,13.28
2019-03-25T22:50:34.008Z,12.95
2019-03-25T22:53:05.213Z,9.63
2019-03-25T22:55:38.971Z,11.93
2019-03-25T22:58:14.598Z,13.03
2019-03-25T23:00:49.673Z,12.98
2019-03-25T23:03:39.096Z,12.93
2019-03-25T23:06:06.327Z,19.07
2019-03-25T23:08:40.005Z,16.95
2019-03-25T23:11:22.941Z,12.40
2019-03-25T23:13:58.114Z,16.67
2019-03-25T23:16:30.754Z,15.85
2019-03-25T23:19:02.291Z,10.38
2019-03-25T23:21:34.407Z,9.70
2019-03-25T23:24:08.652Z,12.50
2019-03-25T23:26:43.691Z,9.60
2019-03-25T23:29:16.230Z,13.18
2019-03-25T23:31:48.251Z,10.25
2019-03-25T23:34:22.655Z,12.90
2019-03-25T23:36:57.942Z,13.65
2019-03-25T23:39:34.247Z,13.43
2019-03-25T23:42:07.301Z,14.07
2019-03-25T23:44:41.444Z,12.80
2019-03-25T23:47:14.749Z,10.68
2019-03-25T23:49:46.511Z,9.13
2019-03-25T23:52:20.852Z,17.20
2019-03-25T23:54:54.454Z,12.82
2019-03-25T23:57:26.209Z,10.80
2019-03-25T23:59:59.058Z,13.65
